createdAt,value
2018-06-08T00:00:09.962Z,16.13
2018-06-08T00:02:50.046Z,16.20
2018-06-08T00:05:19.941Z,15.67
2018-06-08T00:07:49.286Z,16.30
2018-06-08T00:10:18.678Z,17.63
2018-06-08T00:12:47.985Z,18.93
2018-06-08T00:15:17.314Z,16.70
2018-06-08T00:17:46.769Z,15.50
2018-06-08T00:20:16.110Z,16.43
2018-06-08T00:22:45.510Z,16.63
2018-06-08T00:25:14.897Z,17.50
2018-06-08T00:27:44.290Z,16.30
2018-06-08T00:30:13.677Z,18.10
2018-06-08T00:32:43.849Z,17.50
2018-06-08T00:35:13.147Z,16.90
2018-06-08T00:37:42.202Z,16.27
2018-06-08T00:40:11.631Z,15.37
2018-06-08T00:42:43.102Z,14.97
2018-06-08T00:45:12.515Z,16.17
2018-06-08T00:47:41.932Z,15.73
2018-06-08T00:50:11.348Z,15.77
2018-06-08T00:52:41.767Z,15.37
2018-06-08T00:55:11.209Z,14.13
2018-06-08T00:57:40.627Z,14.63
2018-06-08T01:00:09.963Z,15.57
2018-06-08T01:03:00.147Z,15.40
2018-06-08T01:05:29.414Z,14.00
2018-06-08T01:07:58.729Z,13.63
2018-06-08T01:10:45.002Z,13.63
2018-06-08T01:13:14.411Z,13.03
2018-06-08T01:15:43.777Z,13.40
2018-06-08T01:18:13.236Z,13.93
2018-06-08T01:20:44.565Z,13.57
2018-06-08T01:23:13.900Z,14.27
2018-06-08T01:25:43.317Z,13.10
2018-06-08T01:28:12.711Z,15.17
2018-06-08T01:30:45.173Z,15.73
2018-06-08T01:33:14.593Z,14.47
2018-06-08T01:35:44.059Z,13.90
2018-06-08T01:38:13.434Z,14.30
2018-06-08T01:40:48.288Z,13.83
2018-06-08T01:43:17.630Z,12.43
2018-06-08T01:45:46.973Z,13.63
2018-06-08T01:48:16.385Z,13.37
2018-06-08T01:50:46.889Z,13.53
2018-06-08T01:53:16.180Z,14.27
2018-06-08T01:55:45.604Z,14.77
2018-06-08T01:58:14.969Z,14.43
2018-06-08T02:00:48.840Z,14.50
2018-06-08T02:03:18.158Z,14.43
2018-06-08T02:05:47.573Z,14.10
2018-06-08T02:08:16.829Z,14.20
2018-06-08T02:11:14.668Z,13.93
2018-06-08T02:13:44.093Z,13.97
2018-06-08T02:16:13.442Z,14.13
2018-06-08T02:18:42.775Z,14.77
2018-06-08T02:21:13.196Z,13.00
2018-06-08T02:23:42.725Z,14.47
2018-06-08T02:26:12.128Z,16.27
2018-06-08T02:28:41.538Z,16.50
2018-06-08T02:31:11.954Z,16.93
2018-06-08T02:33:41.209Z,19.00
2018-06-08T02:36:10.289Z,19.37
2018-06-08T02:38:39.582Z,21.63
2018-06-08T02:41:10.001Z,19.63
2018-06-08T02:43:39.405Z,19.93
2018-06-08T02:46:08.795Z,17.77
2018-06-08T02:48:38.190Z,16.83
2018-06-08T02:51:09.622Z,16.57
2018-06-08T02:53:38.985Z,17.40
2018-06-08T02:56:08.356Z,19.53
2018-06-08T02:58:37.707Z,19.43
2018-06-08T03:01:11.777Z,19.33
2018-06-08T03:03:40.958Z,19.03
2018-06-08T03:06:10.037Z,19.93
2018-06-08T03:08:39.417Z,19.27
2018-06-08T03:11:10.774Z,19.30
2018-06-08T03:13:40.142Z,19.17
2018-06-08T03:16:10.028Z,19.20
2018-06-08T03:18:39.433Z,21.13
2018-06-08T03:21:08.890Z,18.37
2018-06-08T03:23:38.197Z,21.13
2018-06-08T03:26:07.523Z,21.30
2018-06-08T03:28:36.912Z,20.30
2018-06-08T03:31:09.614Z,20.23
2018-06-08T03:33:38.945Z,19.83
2018-06-08T03:36:08.416Z,18.90
2018-06-08T03:38:37.818Z,21.73
2018-06-08T03:41:09.197Z,20.97
2018-06-08T03:43:38.558Z,19.90
2018-06-08T03:46:07.856Z,19.60
2018-06-08T03:48:37.225Z,20.50
2018-06-08T03:51:09.778Z,19.63
2018-06-08T03:53:39.192Z,19.77
2018-06-08T03:56:08.589Z,19.83
2018-06-08T03:58:37.930Z,20.47
2018-06-08T04:01:10.412Z,18.57
2018-06-08T04:03:39.806Z,20.70
2018-06-08T04:06:09.190Z,23.10
2018-06-08T04:08:38.610Z,20.13
2018-06-08T04:11:08.126Z,21.40
2018-06-08T04:13:37.520Z,20.40
2018-06-08T04:16:06.874Z,20.53
2018-06-08T04:18:36.168Z,20.40
2018-06-08T04:21:18.970Z,20.50
2018-06-08T04:23:48.462Z,20.83
2018-06-08T04:26:17.809Z,21.77
2018-06-08T04:28:47.247Z,22.60
2018-06-08T04:31:17.080Z,22.00
2018-06-08T04:33:46.468Z,21.80
2018-06-08T04:36:15.866Z,21.20
2018-06-08T04:38:45.222Z,21.20
2018-06-08T04:41:14.645Z,20.00
2018-06-08T04:43:43.932Z,18.37
2018-06-08T04:46:13.345Z,20.13
2018-06-08T04:48:42.685Z,17.90
2018-06-08T04:51:15.900Z,18.60
2018-06-08T04:53:46.145Z,18.63
2018-06-08T04:56:15.688Z,19.90
2018-06-08T04:58:45.046Z,19.30
2018-06-08T05:01:16.879Z,18.23
2018-06-08T05:03:46.228Z,17.70
2018-06-08T05:06:15.569Z,16.43
2018-06-08T05:08:44.616Z,16.53
2018-06-08T05:11:17.475Z,16.57
2018-06-08T05:13:46.838Z,16.97
2018-06-08T05:16:16.218Z,17.47
2018-06-08T05:18:45.589Z,17.13
2018-06-08T05:21:14.973Z,16.17
2018-06-08T05:23:44.366Z,15.93
2018-06-08T05:26:13.690Z,16.63
2018-06-08T05:28:43.025Z,15.00
2018-06-08T05:31:14.414Z,16.30
2018-06-08T05:33:43.844Z,16.03
2018-06-08T05:36:13.360Z,16.40
2018-06-08T05:38:43.564Z,15.70
2018-06-08T05:41:12.997Z,15.93
2018-06-08T05:43:42.429Z,15.70
2018-06-08T05:46:11.802Z,14.77
2018-06-08T05:48:41.250Z,14.67
2018-06-08T05:51:11.685Z,13.90
2018-06-08T05:53:41.159Z,14.10
2018-06-08T05:56:10.500Z,14.87
2018-06-08T05:58:39.866Z,14.97
2018-06-08T06:01:11.173Z,14.97
2018-06-08T06:03:40.601Z,15.83
2018-06-08T06:06:10.017Z,15.23
2018-06-08T06:08:39.354Z,13.80
2018-06-08T06:11:10.856Z,14.27
2018-06-08T06:13:40.531Z,14.23
2018-06-08T06:16:09.909Z,13.53
2018-06-08T06:18:39.323Z,13.90
2018-06-08T06:21:08.777Z,13.20
2018-06-08T06:23:38.169Z,14.27
2018-06-08T06:26:07.598Z,14.30
2018-06-08T06:28:37.012Z,14.60
2018-06-08T06:31:09.818Z,13.90
2018-06-08T06:33:39.134Z,14.00
2018-06-08T06:36:08.490Z,13.70
2018-06-08T06:38:37.785Z,13.13
2018-06-08T06:41:07.253Z,13.67
2018-06-08T06:43:36.617Z,13.63
2018-06-08T06:46:06.469Z,12.77
2018-06-08T06:48:35.807Z,12.60
2018-06-08T06:51:06.246Z,11.77
2018-06-08T06:53:35.638Z,12.80
2018-06-08T06:56:04.712Z,11.70
2018-06-08T06:58:34.118Z,12.67
2018-06-08T07:01:03.574Z,12.10
2018-06-08T07:03:32.929Z,11.97
2018-06-08T07:06:02.357Z,12.90
2018-06-08T07:08:31.755Z,12.30
2018-06-08T07:11:03.119Z,12.77
2018-06-08T07:13:32.552Z,12.30
2018-06-08T07:16:01.854Z,12.90
2018-06-08T07:18:31.294Z,12.37
2018-06-08T07:21:21.747Z,13.30
2018-06-08T07:23:51.125Z,13.43
2018-06-08T07:26:20.450Z,12.97
2018-06-08T07:28:49.880Z,12.47
2018-06-08T07:31:19.397Z,11.97
2018-06-08T07:33:48.857Z,12.07
2018-06-08T07:36:18.186Z,12.47
2018-06-08T07:38:47.621Z,12.30
2018-06-08T07:41:17.245Z,12.00
2018-06-08T07:43:46.657Z,13.47
2018-06-08T07:46:16.093Z,12.37
2018-06-08T07:48:45.537Z,11.13
2018-06-08T07:51:15.063Z,13.27
2018-06-08T07:53:44.463Z,12.13
2018-06-08T07:56:13.781Z,12.93
2018-06-08T07:58:44.572Z,11.83
2018-06-08T08:01:14.014Z,12.93
2018-06-08T08:03:43.406Z,12.93
2018-06-08T08:06:12.973Z,12.47
2018-06-08T08:08:42.191Z,12.50
2018-06-08T08:11:19.446Z,13.03
2018-06-08T08:13:48.729Z,12.77
2018-06-08T08:16:18.124Z,14.53
2018-06-08T08:18:47.497Z,13.20
2018-06-08T08:21:22.445Z,13.37
2018-06-08T08:23:51.827Z,12.87
2018-06-08T08:26:21.161Z,12.93
2018-06-08T08:28:50.522Z,12.10
2018-06-08T08:31:20.886Z,13.40
2018-06-08T08:33:50.297Z,12.60
2018-06-08T08:36:19.722Z,14.70
2018-06-08T08:38:49.115Z,13.10
2018-06-08T08:41:23.577Z,13.30
2018-06-08T08:43:52.889Z,12.53
2018-06-08T08:46:22.243Z,13.03
2018-06-08T08:48:51.663Z,12.93
2018-06-08T08:51:28.336Z,12.27
2018-06-08T08:53:57.768Z,13.23
2018-06-08T08:56:27.141Z,13.57
2018-06-08T08:58:56.567Z,14.20
2018-06-08T09:01:27.143Z,14.10
2018-06-08T09:03:56.487Z,13.53
2018-06-08T09:06:25.925Z,12.47
2018-06-08T09:08:55.374Z,14.50
2018-06-08T09:11:28.110Z,13.60
2018-06-08T09:13:57.480Z,13.23
2018-06-08T09:16:26.974Z,13.22
2018-06-08T09:18:56.374Z,12.30
2018-06-08T09:21:27.833Z,11.48
2018-06-08T09:23:57.227Z,12.23
2018-06-08T09:26:27.517Z,13.22
2018-06-08T09:28:58.064Z,12.13
2018-06-08T09:31:37.172Z,13.53
2018-06-08T09:34:06.728Z,11.97
2018-06-08T09:36:36.074Z,11.75
2018-06-08T09:39:07.850Z,12.78
2018-06-08T09:41:37.290Z,12.93
2018-06-08T09:44:06.641Z,13.70
2018-06-08T09:46:36.013Z,13.18
2018-06-08T09:49:05.426Z,12.60
2018-06-08T09:51:38.908Z,11.30
2018-06-08T09:54:08.364Z,12.00
2018-06-08T09:56:37.706Z,11.35
2018-06-08T09:59:07.072Z,12.40
2018-06-08T10:01:37.582Z,10.85
2018-06-08T10:04:07.134Z,10.20
2018-06-08T10:06:36.527Z,10.45
2018-06-08T10:09:08.200Z,11.05
2018-06-08T10:11:38.610Z,10.48
2018-06-08T10:14:08.032Z,10.32
2018-06-08T10:16:43.953Z,9.65
2018-06-08T10:19:30.851Z,8.98
2018-06-08T10:22:17.961Z,8.43
2018-06-08T10:24:47.386Z,8.35
2018-06-08T10:27:16.884Z,7.55
2018-06-08T10:29:46.268Z,7.67
2018-06-08T10:32:15.702Z,7.45
2018-06-08T10:34:45.085Z,7.25
2018-06-08T10:37:15.068Z,7.10
2018-06-08T10:39:45.374Z,7.40
2018-06-08T10:42:42.385Z,8.08
2018-06-08T10:45:11.755Z,7.65
2018-06-08T10:47:49.583Z,7.08
2018-06-08T10:50:18.924Z,6.60
2018-06-08T10:52:48.385Z,8.23
2018-06-08T10:55:18.233Z,7.92
2018-06-08T10:57:47.622Z,7.78
2018-06-08T11:00:16.947Z,7.95
2018-06-08T11:02:46.302Z,8.15
2018-06-08T11:05:23.149Z,7.62
2018-06-08T11:07:52.454Z,8.00
2018-06-08T11:10:29.120Z,8.45
2018-06-08T11:13:08.215Z,8.15
2018-06-08T11:15:38.171Z,8.05
2018-06-08T11:18:09.357Z,8.43
2018-06-08T11:21:24.878Z,8.65
2018-06-08T11:23:59.148Z,7.95
2018-06-08T11:26:36.248Z,8.40
2018-06-08T11:29:05.713Z,8.08
2018-06-08T11:31:36.086Z,8.73
2018-06-08T11:34:07.441Z,7.95
2018-06-08T11:36:56.174Z,7.92
2018-06-08T11:39:26.044Z,8.33
2018-06-08T11:41:55.295Z,8.35
2018-06-08T11:44:24.488Z,7.97
2018-06-08T11:46:54.595Z,7.78
2018-06-08T11:49:23.901Z,8.13
2018-06-08T11:51:53.546Z,11.73
2018-06-08T11:54:23.836Z,7.45
2018-06-08T11:56:53.095Z,7.92
2018-06-08T11:59:22.229Z,7.97
2018-06-08T12:01:54.150Z,7.67
2018-06-08T12:04:23.516Z,7.42
2018-06-08T12:06:52.902Z,7.42
2018-06-08T12:09:22.374Z,7.10
2018-06-08T12:11:53.365Z,7.67
2018-06-08T12:14:23.563Z,7.12
2018-06-08T12:16:53.350Z,7.83
2018-06-08T12:19:22.567Z,7.25
2018-06-08T12:21:56.079Z,6.70
2018-06-08T12:24:27.059Z,6.22
2018-06-08T12:27:27.513Z,6.65
2018-06-08T12:30:01.873Z,6.65
2018-06-08T12:32:33.169Z,5.42
2018-06-08T12:35:08.112Z,5.83
2018-06-08T12:37:37.366Z,4.70
2018-06-08T12:40:06.846Z,5.33
2018-06-08T12:42:36.332Z,5.10
2018-06-08T12:45:05.505Z,5.25
2018-06-08T12:47:34.889Z,5.80
2018-06-08T12:50:04.308Z,4.78
2018-06-08T12:52:41.350Z,5.33
2018-06-08T12:55:11.522Z,5.33
2018-06-08T12:57:51.654Z,5.00
2018-06-08T13:00:26.485Z,5.42
2018-06-08T13:03:06.419Z,4.95
2018-06-08T13:05:35.786Z,4.50
2018-06-08T13:11:25.816Z,5.22
2018-06-08T13:13:55.059Z,4.90
2018-06-08T13:16:24.453Z,5.28
2018-06-08T13:18:53.864Z,5.50
2018-06-08T13:21:23.441Z,5.50
2018-06-08T13:23:52.887Z,5.30
2018-06-08T13:26:22.212Z,5.10
2018-06-08T13:28:51.543Z,6.08
2018-06-08T13:31:45.825Z,5.12
2018-06-08T13:34:14.970Z,5.47
2018-06-08T13:36:45.341Z,5.10
2018-06-08T13:39:15.415Z,5.53
2018-06-08T13:41:50.150Z,5.28
2018-06-08T13:44:19.706Z,5.08
2018-06-08T13:46:49.160Z,5.37
2018-06-08T13:49:19.572Z,5.10
2018-06-08T13:51:57.533Z,5.08
2018-06-08T13:54:26.847Z,5.22
2018-06-08T13:56:56.213Z,5.00
2018-06-08T13:59:25.703Z,4.67
2018-06-08T14:02:08.009Z,6.17
2018-06-08T14:04:37.271Z,6.00
2018-06-08T14:07:06.730Z,6.17
2018-06-08T14:09:35.858Z,6.15
2018-06-08T14:12:13.057Z,5.85
2018-06-08T14:14:42.488Z,6.83
2018-06-08T14:17:11.858Z,6.17
2018-06-08T14:19:41.363Z,6.37
2018-06-08T14:22:11.048Z,6.92
2018-06-08T14:24:40.754Z,6.17
2018-06-08T14:27:10.114Z,7.03
2018-06-08T14:29:39.511Z,6.05
2018-06-08T14:32:14.448Z,6.35
2018-06-08T14:34:43.972Z,6.05
2018-06-08T14:37:13.121Z,6.28
2018-06-08T14:39:42.444Z,7.05
2018-06-08T14:42:12.951Z,5.95
2018-06-08T14:44:42.427Z,6.50
2018-06-08T14:47:11.973Z,6.67
2018-06-08T14:49:41.393Z,6.28
2018-06-08T14:52:16.192Z,6.47
2018-06-08T14:54:45.577Z,6.70
2018-06-08T14:57:14.944Z,6.37
2018-06-08T14:59:44.321Z,6.75
2018-06-08T15:02:14.813Z,6.78
2018-06-08T15:04:44.202Z,5.67
2018-06-08T15:07:13.558Z,6.08
2018-06-08T15:09:42.965Z,7.58
2018-06-08T15:12:16.984Z,8.98
2018-06-08T15:14:46.374Z,9.05
2018-06-08T15:17:15.746Z,8.90
2018-06-08T15:19:45.121Z,9.08
2018-06-08T15:22:16.679Z,9.73
2018-06-08T15:24:46.088Z,9.98
2018-06-08T15:27:15.507Z,9.97
2018-06-08T15:29:44.975Z,10.33
2018-06-08T15:32:18.641Z,10.07
2018-06-08T15:34:48.109Z,9.97
2018-06-08T15:37:17.686Z,10.53
2018-06-08T15:39:47.157Z,10.50
2018-06-08T15:42:20.163Z,10.27
2018-06-08T15:44:49.579Z,10.37
2018-06-08T15:47:19.129Z,10.50
2018-06-08T15:49:48.522Z,10.20
2018-06-08T15:52:28.059Z,10.90
2018-06-08T15:54:57.479Z,10.33
2018-06-08T15:57:26.610Z,10.60
2018-06-08T15:59:56.026Z,10.07
2018-06-08T16:02:36.188Z,10.70
2018-06-08T16:05:05.743Z,11.43
2018-06-08T16:07:35.264Z,11.40
2018-06-08T16:10:04.782Z,11.07
2018-06-08T16:12:37.723Z,10.97
2018-06-08T16:15:07.206Z,11.43
2018-06-08T16:17:36.644Z,11.30
2018-06-08T16:20:05.753Z,11.40
2018-06-08T16:22:43.144Z,11.40
2018-06-08T16:25:12.575Z,12.17
2018-06-08T16:27:42.038Z,11.20
2018-06-08T16:30:11.191Z,12.07
2018-06-08T16:32:50.852Z,12.60
2018-06-08T16:35:20.234Z,12.83
2018-06-08T16:37:49.725Z,11.97
2018-06-08T16:40:19.170Z,10.90
2018-06-08T16:42:48.633Z,11.97
2018-06-08T16:45:18.003Z,12.63
2018-06-08T16:47:47.383Z,12.93
2018-06-08T16:50:16.805Z,12.47
2018-06-08T16:52:46.163Z,14.37
2018-06-08T16:55:16.570Z,13.80
2018-06-08T16:57:45.996Z,13.97
2018-06-08T17:00:15.403Z,12.70
2018-06-08T17:02:50.673Z,13.63
2018-06-08T17:05:27.149Z,13.53
2018-06-08T17:07:56.416Z,12.93
2018-06-08T17:10:25.812Z,12.70
2018-06-08T17:12:54.915Z,11.73
2018-06-08T17:15:24.017Z,13.00
2018-06-08T17:17:53.248Z,13.77
2018-06-08T17:20:22.658Z,12.60
2018-06-08T17:22:52.033Z,12.67
2018-06-08T17:25:23.999Z,13.67
2018-06-08T17:27:53.463Z,12.93
2018-06-08T17:30:22.907Z,13.33
2018-06-08T17:32:52.341Z,13.67
2018-06-08T17:35:22.380Z,13.67
2018-06-08T17:37:51.754Z,12.73
2018-06-08T17:40:21.159Z,13.20
2018-06-08T17:42:50.585Z,13.50
2018-06-08T17:45:20.021Z,13.30
2018-06-08T17:47:49.463Z,12.00
2018-06-08T17:50:18.830Z,12.17
2018-06-08T17:52:48.151Z,13.00
2018-06-08T17:55:17.591Z,13.10
2018-06-08T17:57:47.033Z,12.60
2018-06-08T18:00:16.422Z,13.07
2018-06-08T18:02:45.940Z,13.07
2018-06-08T18:05:15.358Z,13.03
2018-06-08T18:07:45.966Z,13.27
2018-06-08T18:10:15.394Z,13.30
2018-06-08T18:12:44.853Z,12.70
2018-06-08T18:15:14.237Z,12.13
2018-06-08T18:17:43.710Z,11.30
2018-06-08T18:20:13.108Z,12.57
2018-06-08T18:23:09.606Z,11.17
2018-06-08T18:25:39.098Z,11.40
2018-06-08T18:28:08.526Z,11.57
2018-06-08T18:30:43.169Z,12.30
2018-06-08T18:33:12.628Z,12.37
2018-06-08T18:35:48.709Z,13.90
2018-06-08T18:38:18.001Z,13.13
2018-06-08T18:40:47.533Z,12.33
2018-06-08T18:43:16.941Z,12.87
2018-06-08T18:45:46.404Z,12.90
2018-06-08T18:48:15.829Z,12.20
2018-06-08T18:50:54.894Z,12.20
2018-06-08T18:53:24.213Z,11.33
2018-06-08T18:55:53.670Z,12.57
2018-06-08T18:58:24.330Z,12.63
2018-06-08T19:00:54.848Z,12.93
2018-06-08T19:03:24.224Z,12.50
2018-06-08T19:05:53.646Z,12.57
2018-06-08T19:08:23.034Z,12.37
2018-06-08T19:11:04.243Z,12.00
2018-06-08T19:13:33.658Z,11.50
2018-06-08T19:16:03.050Z,11.90
2018-06-08T19:18:32.471Z,11.20
2018-06-08T19:21:20.658Z,11.67
2018-06-08T19:23:51.053Z,12.23
2018-06-08T19:26:20.488Z,11.00
2018-06-08T19:28:49.837Z,12.20
2018-06-08T19:31:19.298Z,11.60
2018-06-08T19:33:48.797Z,11.47
2018-06-08T19:36:17.931Z,10.80
2018-06-08T19:38:47.323Z,11.60
2018-06-08T19:41:28.478Z,11.80
2018-06-08T19:43:57.927Z,11.17
2018-06-08T19:46:27.327Z,11.93
2018-06-08T19:48:56.708Z,11.57
2018-06-08T19:51:30.231Z,10.97
2018-06-08T19:53:59.674Z,12.70
2018-06-08T19:56:29.074Z,12.70
2018-06-08T19:58:58.457Z,12.90
2018-06-08T20:01:43.398Z,12.47
2018-06-08T20:04:12.876Z,12.70
2018-06-08T20:06:42.341Z,12.33
2018-06-08T20:09:11.719Z,12.00
2018-06-08T20:11:43.127Z,12.37
2018-06-08T20:14:12.514Z,12.47
2018-06-08T20:16:41.959Z,12.17
2018-06-08T20:19:11.346Z,11.80
2018-06-08T20:21:48.423Z,13.57
2018-06-08T20:24:17.829Z,13.17
2018-06-08T20:26:49.287Z,12.70
2018-06-08T20:29:18.706Z,12.27
2018-06-08T20:32:28.198Z,12.07
2018-06-08T20:35:04.877Z,12.27
2018-06-08T20:37:34.033Z,11.33
2018-06-08T20:40:04.026Z,11.67
2018-06-08T20:42:41.159Z,11.17
2018-06-08T20:45:10.553Z,11.80
2018-06-08T20:47:39.979Z,11.93
2018-06-08T20:50:09.435Z,12.53
2018-06-08T20:52:41.873Z,12.60
2018-06-08T20:55:11.291Z,12.53
2018-06-08T20:57:56.439Z,11.50
2018-06-08T21:00:25.814Z,12.13
2018-06-08T21:02:55.158Z,11.10
2018-06-08T21:05:24.574Z,11.50
2018-06-08T21:07:53.986Z,11.67
2018-06-08T21:10:23.336Z,13.43
2018-06-08T21:12:52.755Z,12.67
2018-06-08T21:15:22.181Z,13.70
2018-06-08T21:17:51.566Z,12.53
2018-06-08T21:20:20.946Z,13.43
2018-06-08T21:22:59.085Z,14.00
2018-06-08T21:25:28.414Z,13.93
2018-06-08T21:27:57.772Z,13.70
2018-06-08T21:30:27.127Z,13.77
2018-06-08T21:32:56.539Z,14.50
2018-06-08T21:35:25.982Z,13.57
2018-06-08T21:37:55.384Z,12.80
2018-06-08T21:40:24.812Z,12.00
2018-06-08T21:42:54.187Z,11.80
2018-06-08T21:45:23.601Z,12.03
2018-06-08T21:47:52.985Z,12.27
2018-06-08T21:50:22.375Z,13.13
2018-06-08T21:52:55.385Z,13.40
2018-06-08T21:55:24.803Z,14.53
2018-06-08T21:57:54.115Z,14.27
2018-06-08T22:00:23.474Z,14.93
2018-06-08T22:02:52.967Z,14.10
2018-06-08T22:05:22.287Z,13.50
2018-06-08T22:07:51.722Z,14.20
2018-06-08T22:10:21.116Z,14.03
2018-06-08T22:12:54.178Z,13.77
2018-06-08T22:15:23.562Z,14.57
2018-06-08T22:17:52.995Z,14.23
2018-06-08T22:20:22.418Z,14.13
2018-06-08T22:23:00.138Z,14.20
2018-06-08T22:25:29.510Z,14.97
2018-06-08T22:27:58.907Z,14.90
2018-06-08T22:30:28.276Z,14.93
2018-06-08T22:32:57.613Z,13.87
2018-06-08T22:35:27.003Z,14.03
2018-06-08T22:37:56.359Z,13.03
2018-06-08T22:40:25.693Z,13.97
2018-06-08T22:42:55.655Z,13.27
2018-06-08T22:45:25.000Z,13.60
2018-06-08T22:47:54.407Z,13.50
2018-06-08T22:50:23.865Z,13.77
2018-06-08T22:53:07.573Z,12.93
2018-06-08T22:55:36.921Z,13.77
2018-06-08T22:58:06.361Z,14.53
2018-06-08T23:00:35.791Z,14.27
2018-06-08T23:05:33.865Z,13.13
2018-06-08T23:08:03.018Z,13.37
2018-06-08T23:10:32.119Z,13.13
2018-06-08T23:13:01.253Z,14.10
2018-06-08T23:15:30.421Z,12.80
2018-06-08T23:17:59.605Z,13.70
2018-06-08T23:20:28.810Z,13.93
2018-06-08T23:22:57.926Z,15.07
2018-06-08T23:25:27.087Z,15.27
2018-06-08T23:27:56.418Z,14.40
2018-06-08T23:30:25.775Z,14.13
2018-06-08T23:32:55.155Z,13.60
2018-06-08T23:35:24.523Z,13.50
2018-06-08T23:37:53.869Z,13.03
2018-06-08T23:40:23.311Z,13.57
2018-06-08T23:42:56.823Z,13.13
2018-06-08T23:45:26.263Z,12.73
2018-06-08T23:47:55.599Z,14.10
2018-06-08T23:50:24.999Z,13.30
2018-06-08T23:52:54.351Z,13.23
2018-06-08T23:55:23.432Z,12.47
2018-06-08T23:57:52.818Z,12.50
